sensor_id;sensor_type;location;lat;lon;timestamp;temperature;humidity
75738;DHT22;64356;45.638;13.764;2023-04-03T00:01:55;22.20;41.50
75738;DHT22;64356;45.638;13.764;2023-04-03T00:04:21;22.10;41.50
75738;DHT22;64356;45.638;13.764;2023-04-03T00:06:47;22.20;41.60
75738;DHT22;64356;45.638;13.764;2023-04-03T00:09:12;22.10;41.60
75738;DHT22;64356;45.638;13.764;2023-04-03T00:11:38;22.10;41.60
75738;DHT22;64356;45.638;13.764;2023-04-03T00:14:04;22.10;41.70
75738;DHT22;64356;45.638;13.764;2023-04-03T00:16:29;22.10;41.70
75738;DHT22;64356;45.638;13.764;2023-04-03T00:18:55;22.10;41.70
75738;DHT22;64356;45.638;13.764;2023-04-03T00:21:21;22.10;41.80
75738;DHT22;64356;45.638;13.764;2023-04-03T00:23:46;22.10;41.90
75738;DHT22;64356;45.638;13.764;2023-04-03T00:26:12;22.00;42.00
75738;DHT22;64356;45.638;13.764;2023-04-03T00:28:38;22.00;41.90
75738;DHT22;64356;45.638;13.764;2023-04-03T00:31:04;22.00;41.80
75738;DHT22;64356;45.638;13.764;2023-04-03T00:33:29;22.00;41.90
75738;DHT22;64356;45.638;13.764;2023-04-03T00:35:55;22.00;41.90
75738;DHT22;64356;45.638;13.764;2023-04-03T00:38:21;22.00;41.90
75738;DHT22;64356;45.638;13.764;2023-04-03T00:40:48;22.00;41.90
75738;DHT22;64356;45.638;13.764;2023-04-03T00:45:45;22.00;42.00
75738;DHT22;64356;45.638;13.764;2023-04-03T00:48:18;22.00;41.90
75738;DHT22;64356;45.638;13.764;2023-04-03T00:50:45;22.00;41.80
75738;DHT22;64356;45.638;13.764;2023-04-03T00:53:18;22.00;41.80
75738;DHT22;64356;45.638;13.764;2023-04-03T00:55:47;22.00;41.70
75738;DHT22;64356;45.638;13.764;2023-04-03T00:58:14;21.90;41.60
75738;DHT22;64356;45.638;13.764;2023-04-03T01:00:44;21.90;41.60
75738;DHT22;64356;45.638;13.764;2023-04-03T01:03:10;21.90;41.60
75738;DHT22;64356;45.638;13.764;2023-04-03T01:05:36;21.90;41.70
75738;DHT22;64356;45.638;13.764;2023-04-03T01:08:02;21.90;41.60
75738;DHT22;64356;45.638;13.764;2023-04-03T01:10:27;21.90;41.70
75738;DHT22;64356;45.638;13.764;2023-04-03T01:12:53;21.90;41.70
75738;DHT22;64356;45.638;13.764;2023-04-03T01:15:26;21.90;41.70
75738;DHT22;64356;45.638;13.764;2023-04-03T01:17:56;21.90;41.70
75738;DHT22;64356;45.638;13.764;2023-04-03T01:25:46;21.90;41.70
75738;DHT22;64356;45.638;13.764;2023-04-03T01:33:17;21.80;41.70
75738;DHT22;64356;45.638;13.764;2023-04-03T01:35:43;21.80;41.70
75738;DHT22;64356;45.638;13.764;2023-04-03T01:38:08;21.80;41.70
75738;DHT22;64356;45.638;13.764;2023-04-03T01:40:34;21.80;41.70
75738;DHT22;64356;45.638;13.764;2023-04-03T01:43:00;21.80;41.70
75738;DHT22;64356;45.638;13.764;2023-04-03T01:45:26;21.80;41.60
75738;DHT22;64356;45.638;13.764;2023-04-03T01:47:51;21.80;41.60
75738;DHT22;64356;45.638;13.764;2023-04-03T01:50:17;21.80;41.60
75738;DHT22;64356;45.638;13.764;2023-04-03T01:52:43;21.80;41.60
75738;DHT22;64356;45.638;13.764;2023-04-03T01:55:09;21.80;41.70
75738;DHT22;64356;45.638;13.764;2023-04-03T01:57:35;21.80;41.70
75738;DHT22;64356;45.638;13.764;2023-04-03T02:00:01;21.80;41.70
75738;DHT22;64356;45.638;13.764;2023-04-03T02:02:26;21.80;41.60
75738;DHT22;64356;45.638;13.764;2023-04-03T02:04:52;21.80;41.60
75738;DHT22;64356;45.638;13.764;2023-04-03T02:07:18;21.70;41.60
75738;DHT22;64356;45.638;13.764;2023-04-03T02:09:43;21.80;41.70
75738;DHT22;64356;45.638;13.764;2023-04-03T02:12:09;21.70;41.60
75738;DHT22;64356;45.638;13.764;2023-04-03T02:14:35;21.70;41.70
75738;DHT22;64356;45.638;13.764;2023-04-03T02:17:01;21.70;41.70
75738;DHT22;64356;45.638;13.764;2023-04-03T02:19:31;21.70;41.70
75738;DHT22;64356;45.638;13.764;2023-04-03T02:21:56;21.70;41.70
75738;DHT22;64356;45.638;13.764;2023-04-03T02:24:22;21.70;41.60
75738;DHT22;64356;45.638;13.764;2023-04-03T02:26:48;21.70;41.70
75738;DHT22;64356;45.638;13.764;2023-04-03T02:29:13;21.70;41.70
75738;DHT22;64356;45.638;13.764;2023-04-03T02:31:40;21.70;41.60
75738;DHT22;64356;45.638;13.764;2023-04-03T02:34:05;21.70;41.60
75738;DHT22;64356;45.638;13.764;2023-04-03T02:36:31;21.70;41.60
75738;DHT22;64356;45.638;13.764;2023-04-03T02:38:57;21.70;41.70
75738;DHT22;64356;45.638;13.764;2023-04-03T02:41:22;21.70;41.60
75738;DHT22;64356;45.638;13.764;2023-04-03T02:43:50;21.70;41.70
75738;DHT22;64356;45.638;13.764;2023-04-03T02:46:16;21.70;41.60
75738;DHT22;64356;45.638;13.764;2023-04-03T02:48:42;21.60;41.50
75738;DHT22;64356;45.638;13.764;2023-04-03T02:51:07;21.70;41.60
75738;DHT22;64356;45.638;13.764;2023-04-03T02:53:33;21.60;41.50
75738;DHT22;64356;45.638;13.764;2023-04-03T02:55:59;21.60;41.50
75738;DHT22;64356;45.638;13.764;2023-04-03T02:58:24;21.70;42.20
75738;DHT22;64356;45.638;13.764;2023-04-03T03:00:50;21.60;41.50
75738;DHT22;64356;45.638;13.764;2023-04-03T03:03:16;21.60;41.50
75738;DHT22;64356;45.638;13.764;2023-04-03T03:05:41;21.60;41.50
75738;DHT22;64356;45.638;13.764;2023-04-03T03:08:07;21.60;41.50
75738;DHT22;64356;45.638;13.764;2023-04-03T03:10:33;21.60;41.40
75738;DHT22;64356;45.638;13.764;2023-04-03T03:12:58;21.60;41.40
75738;DHT22;64356;45.638;13.764;2023-04-03T03:15:24;21.60;41.40
75738;DHT22;64356;45.638;13.764;2023-04-03T03:17:50;21.60;41.40
75738;DHT22;64356;45.638;13.764;2023-04-03T03:20:16;21.60;41.40
75738;DHT22;64356;45.638;13.764;2023-04-03T03:22:42;21.60;41.40
75738;DHT22;64356;45.638;13.764;2023-04-03T03:25:08;21.60;41.40
75738;DHT22;64356;45.638;13.764;2023-04-03T03:27:34;21.60;41.40
75738;DHT22;64356;45.638;13.764;2023-04-03T03:30:00;21.60;41.40
75738;DHT22;64356;45.638;13.764;2023-04-03T03:32:25;21.60;41.40
75738;DHT22;64356;45.638;13.764;2023-04-03T03:34:51;21.60;41.20
75738;DHT22;64356;45.638;13.764;2023-04-03T03:37:17;21.60;41.20
75738;DHT22;64356;45.638;13.764;2023-04-03T03:39:42;21.60;41.20
75738;DHT22;64356;45.638;13.764;2023-04-03T03:42:08;21.60;41.10
75738;DHT22;64356;45.638;13.764;2023-04-03T03:44:33;21.60;41.20
75738;DHT22;64356;45.638;13.764;2023-04-03T03:46:59;21.60;41.10
75738;DHT22;64356;45.638;13.764;2023-04-03T03:49:26;21.60;41.00
75738;DHT22;64356;45.638;13.764;2023-04-03T03:51:51;21.60;40.90
75738;DHT22;64356;45.638;13.764;2023-04-03T03:54:17;21.60;41.00
75738;DHT22;64356;45.638;13.764;2023-04-03T03:56:43;21.60;41.00
75738;DHT22;64356;45.638;13.764;2023-04-03T03:59:11;21.60;40.90
75738;DHT22;64356;45.638;13.764;2023-04-03T04:01:37;21.60;40.90
75738;DHT22;64356;45.638;13.764;2023-04-03T04:04:02;21.60;40.90
75738;DHT22;64356;45.638;13.764;2023-04-03T04:06:28;21.60;40.80
75738;DHT22;64356;45.638;13.764;2023-04-03T04:08:54;21.60;40.80
75738;DHT22;64356;45.638;13.764;2023-04-03T04:11:20;21.60;40.70
75738;DHT22;64356;45.638;13.764;2023-04-03T04:13:47;21.70;40.00
75738;DHT22;64356;45.638;13.764;2023-04-03T04:16:13;22.00;39.20
75738;DHT22;64356;45.638;13.764;2023-04-03T04:18:38;22.20;38.30
75738;DHT22;64356;45.638;13.764;2023-04-03T04:21:04;22.50;37.90
75738;DHT22;64356;45.638;13.764;2023-04-03T04:23:30;22.60;37.30
75738;DHT22;64356;45.638;13.764;2023-04-03T04:25:55;22.80;37.30
75738;DHT22;64356;45.638;13.764;2023-04-03T04:28:21;22.90;36.70
75738;DHT22;64356;45.638;13.764;2023-04-03T04:30:47;23.00;36.40
75738;DHT22;64356;45.638;13.764;2023-04-03T04:33:12;23.00;35.60
75738;DHT22;64356;45.638;13.764;2023-04-03T04:35:41;23.00;33.10
75738;DHT22;64356;45.638;13.764;2023-04-03T04:38:07;22.80;31.70
75738;DHT22;64356;45.638;13.764;2023-04-03T04:40:34;22.50;31.10
75738;DHT22;64356;45.638;13.764;2023-04-03T04:43:00;22.30;30.90
75738;DHT22;64356;45.638;13.764;2023-04-03T04:45:25;22.20;32.00
75738;DHT22;64356;45.638;13.764;2023-04-03T04:47:51;22.30;32.30
75738;DHT22;64356;45.638;13.764;2023-04-03T04:50:18;22.40;32.20
75738;DHT22;64356;45.638;13.764;2023-04-03T04:52:44;22.50;32.10
75738;DHT22;64356;45.638;13.764;2023-04-03T04:55:11;22.60;32.40
75738;DHT22;64356;45.638;13.764;2023-04-03T04:57:36;22.70;31.80
75738;DHT22;64356;45.638;13.764;2023-04-03T05:00:04;22.80;31.30
75738;DHT22;64356;45.638;13.764;2023-04-03T05:02:30;22.80;31.60
75738;DHT22;64356;45.638;13.764;2023-04-03T05:04:56;22.80;31.70
75738;DHT22;64356;45.638;13.764;2023-04-03T05:07:22;22.80;32.40
75738;DHT22;64356;45.638;13.764;2023-04-03T05:09:48;22.80;32.10
75738;DHT22;64356;45.638;13.764;2023-04-03T05:12:14;22.80;30.90
75738;DHT22;64356;45.638;13.764;2023-04-03T05:14:39;22.80;31.50
75738;DHT22;64356;45.638;13.764;2023-04-03T05:17:05;22.80;31.30
75738;DHT22;64356;45.638;13.764;2023-04-03T05:19:31;22.70;30.10
75738;DHT22;64356;45.638;13.764;2023-04-03T05:21:56;22.60;31.00
75738;DHT22;64356;45.638;13.764;2023-04-03T05:24:22;22.60;32.60
75738;DHT22;64356;45.638;13.764;2023-04-03T05:26:47;22.70;33.00
75738;DHT22;64356;45.638;13.764;2023-04-03T05:29:13;22.90;34.30
75738;DHT22;64356;45.638;13.764;2023-04-03T05:31:39;23.00;32.10
75738;DHT22;64356;45.638;13.764;2023-04-03T05:34:05;23.10;30.90
75738;DHT22;64356;45.638;13.764;2023-04-03T05:36:31;23.00;30.20
75738;DHT22;64356;45.638;13.764;2023-04-03T05:38:56;23.00;30.00
75738;DHT22;64356;45.638;13.764;2023-04-03T05:41:23;22.90;29.70
75738;DHT22;64356;45.638;13.764;2023-04-03T05:43:48;22.80;30.10
75738;DHT22;64356;45.638;13.764;2023-04-03T05:46:16;22.70;29.80
75738;DHT22;64356;45.638;13.764;2023-04-03T05:48:43;22.70;31.60
75738;DHT22;64356;45.638;13.764;2023-04-03T05:51:34;22.70;30.60
75738;DHT22;64356;45.638;13.764;2023-04-03T05:54:26;22.70;30.40
75738;DHT22;64356;45.638;13.764;2023-04-03T05:56:51;22.50;29.30
75738;DHT22;64356;45.638;13.764;2023-04-03T05:59:18;22.50;31.10
75738;DHT22;64356;45.638;13.764;2023-04-03T06:01:43;22.60;30.50
75738;DHT22;64356;45.638;13.764;2023-04-03T06:04:10;22.60;30.50
75738;DHT22;64356;45.638;13.764;2023-04-03T06:06:50;22.70;31.10
75738;DHT22;64356;45.638;13.764;2023-04-03T06:09:17;22.70;31.50
75738;DHT22;64356;45.638;13.764;2023-04-03T06:11:43;22.70;30.00
75738;DHT22;64356;45.638;13.764;2023-04-03T06:14:09;22.70;32.20
75738;DHT22;64356;45.638;13.764;2023-04-03T06:16:35;22.80;32.50
75738;DHT22;64356;45.638;13.764;2023-04-03T06:19:01;23.00;31.90
75738;DHT22;64356;45.638;13.764;2023-04-03T06:21:27;23.10;31.80
75738;DHT22;64356;45.638;13.764;2023-04-03T06:23:53;23.10;30.30
75738;DHT22;64356;45.638;13.764;2023-04-03T06:26:19;23.00;29.90
75738;DHT22;64356;45.638;13.764;2023-04-03T06:28:44;23.00;30.00
75738;DHT22;64356;45.638;13.764;2023-04-03T06:31:10;23.00;31.10
75738;DHT22;64356;45.638;13.764;2023-04-03T06:33:36;23.00;31.00
75738;DHT22;64356;45.638;13.764;2023-04-03T06:36:04;23.00;29.90
75738;DHT22;64356;45.638;13.764;2023-04-03T06:38:30;22.90;29.80
75738;DHT22;64356;45.638;13.764;2023-04-03T06:40:56;22.80;29.30
75738;DHT22;64356;45.638;13.764;2023-04-03T06:43:22;22.70;29.50
75738;DHT22;64356;45.638;13.764;2023-04-03T06:45:48;22.70;29.90
75738;DHT22;64356;45.638;13.764;2023-04-03T06:48:14;22.70;29.50
75738;DHT22;64356;45.638;13.764;2023-04-03T06:50:39;22.70;29.70
75738;DHT22;64356;45.638;13.764;2023-04-03T06:53:06;22.60;29.40
75738;DHT22;64356;45.638;13.764;2023-04-03T06:55:32;22.60;29.40
75738;DHT22;64356;45.638;13.764;2023-04-03T06:57:58;22.60;29.40
75738;DHT22;64356;45.638;13.764;2023-04-03T07:00:24;22.60;29.70
75738;DHT22;64356;45.638;13.764;2023-04-03T07:02:50;22.60;29.20
75738;DHT22;64356;45.638;13.764;2023-04-03T07:05:17;22.60;29.10
75738;DHT22;64356;45.638;13.764;2023-04-03T07:07:42;22.60;29.20
75738;DHT22;64356;45.638;13.764;2023-04-03T07:10:09;22.60;29.20
75738;DHT22;64356;45.638;13.764;2023-04-03T07:12:35;22.50;28.70
75738;DHT22;64356;45.638;13.764;2023-04-03T07:15:01;22.50;29.10
75738;DHT22;64356;45.638;13.764;2023-04-03T07:17:28;22.50;29.30
75738;DHT22;64356;45.638;13.764;2023-04-03T07:19:53;22.60;29.20
75738;DHT22;64356;45.638;13.764;2023-04-03T07:22:19;22.60;28.90
75738;DHT22;64356;45.638;13.764;2023-04-03T07:24:45;22.60;28.80
75738;DHT22;64356;45.638;13.764;2023-04-03T07:27:11;22.60;28.70
75738;DHT22;64356;45.638;13.764;2023-04-03T07:29:38;22.60;29.00
75738;DHT22;64356;45.638;13.764;2023-04-03T07:32:05;22.60;29.00
75738;DHT22;64356;45.638;13.764;2023-04-03T07:34:31;22.70;29.10
75738;DHT22;64356;45.638;13.764;2023-04-03T07:36:58;22.70;28.90
75738;DHT22;64356;45.638;13.764;2023-04-03T07:39:24;22.70;28.80
75738;DHT22;64356;45.638;13.764;2023-04-03T07:41:50;22.70;28.90
75738;DHT22;64356;45.638;13.764;2023-04-03T07:44:17;22.80;29.10
75738;DHT22;64356;45.638;13.764;2023-04-03T07:46:43;22.80;29.20
75738;DHT22;64356;45.638;13.764;2023-04-03T07:49:08;22.80;28.90
75738;DHT22;64356;45.638;13.764;2023-04-03T07:51:34;22.80;28.80
75738;DHT22;64356;45.638;13.764;2023-04-03T07:54:00;22.80;28.90
75738;DHT22;64356;45.638;13.764;2023-04-03T07:56:26;22.80;28.80
75738;DHT22;64356;45.638;13.764;2023-04-03T07:58:52;22.70;28.60
75738;DHT22;64356;45.638;13.764;2023-04-03T08:01:17;22.70;28.60
75738;DHT22;64356;45.638;13.764;2023-04-03T08:03:43;22.70;28.40
75738;DHT22;64356;45.638;13.764;2023-04-03T08:06:09;22.70;28.40
75738;DHT22;64356;45.638;13.764;2023-04-03T08:08:36;22.60;28.20
75738;DHT22;64356;45.638;13.764;2023-04-03T08:11:02;22.60;28.30
75738;DHT22;64356;45.638;13.764;2023-04-03T08:13:30;22.60;28.30
75738;DHT22;64356;45.638;13.764;2023-04-03T08:15:56;22.50;28.10
75738;DHT22;64356;45.638;13.764;2023-04-03T08:18:23;22.60;28.80
75738;DHT22;64356;45.638;13.764;2023-04-03T08:20:50;22.60;28.40
75738;DHT22;64356;45.638;13.764;2023-04-03T08:23:17;22.60;28.30
75738;DHT22;64356;45.638;13.764;2023-04-03T08:25:44;22.70;28.60
75738;DHT22;64356;45.638;13.764;2023-04-03T08:28:11;22.70;28.60
75738;DHT22;64356;45.638;13.764;2023-04-03T08:30:40;22.80;28.60
75738;DHT22;64356;45.638;13.764;2023-04-03T08:33:06;22.80;28.70
75738;DHT22;64356;45.638;13.764;2023-04-03T08:35:32;22.90;28.50
75738;DHT22;64356;45.638;13.764;2023-04-03T08:37:58;22.90;28.10
75738;DHT22;64356;45.638;13.764;2023-04-03T08:40:24;22.90;28.60
75738;DHT22;64356;45.638;13.764;2023-04-03T08:43:00;22.90;28.40
75738;DHT22;64356;45.638;13.764;2023-04-03T08:48:19;22.80;27.80
75738;DHT22;64356;45.638;13.764;2023-04-03T08:50:51;22.60;28.00
75738;DHT22;64356;45.638;13.764;2023-04-03T08:53:21;22.60;27.80
75738;DHT22;64356;45.638;13.764;2023-04-03T08:55:49;22.60;27.80
75738;DHT22;64356;45.638;13.764;2023-04-03T09:00:52;22.50;27.70
75738;DHT22;64356;45.638;13.764;2023-04-03T09:03:21;22.40;27.80
75738;DHT22;64356;45.638;13.764;2023-04-03T09:06:10;22.40;27.50
75738;DHT22;64356;45.638;13.764;2023-04-03T09:16:54;22.30;27.70
75738;DHT22;64356;45.638;13.764;2023-04-03T09:22:02;22.20;27.40
75738;DHT22;64356;45.638;13.764;2023-04-03T09:24:28;22.20;27.40
75738;DHT22;64356;45.638;13.764;2023-04-03T09:27:04;22.20;27.70
75738;DHT22;64356;45.638;13.764;2023-04-03T09:29:38;22.20;27.30
75738;DHT22;64356;45.638;13.764;2023-04-03T09:34:43;22.20;27.30
75738;DHT22;64356;45.638;13.764;2023-04-03T09:37:11;22.20;27.60
75738;DHT22;64356;45.638;13.764;2023-04-03T09:39:56;22.20;27.40
75738;DHT22;64356;45.638;13.764;2023-04-03T09:42:25;22.30;27.80
75738;DHT22;64356;45.638;13.764;2023-04-03T09:44:59;22.40;26.90
75738;DHT22;64356;45.638;13.764;2023-04-03T09:47:27;22.30;27.40
75738;DHT22;64356;45.638;13.764;2023-04-03T09:52:37;22.40;26.90
75738;DHT22;64356;45.638;13.764;2023-04-03T09:55:08;22.40;27.20
75738;DHT22;64356;45.638;13.764;2023-04-03T09:57:39;22.50;27.50
75738;DHT22;64356;45.638;13.764;2023-04-03T10:00:10;22.50;27.10
75738;DHT22;64356;45.638;13.764;2023-04-03T10:02:44;22.50;26.70
75738;DHT22;64356;45.638;13.764;2023-04-03T10:10:40;22.60;26.70
75738;DHT22;64356;45.638;13.764;2023-04-03T10:13:07;22.60;26.50
75738;DHT22;64356;45.638;13.764;2023-04-03T10:15:44;22.60;26.90
75738;DHT22;64356;45.638;13.764;2023-04-03T10:21:13;22.80;26.50
75738;DHT22;64356;45.638;13.764;2023-04-03T10:24:03;22.80;26.70
75738;DHT22;64356;45.638;13.764;2023-04-03T10:26:59;22.90;26.90
75738;DHT22;64356;45.638;13.764;2023-04-03T10:29:55;23.00;26.70
75738;DHT22;64356;45.638;13.764;2023-04-03T10:35:46;22.90;26.00
75738;DHT22;64356;45.638;13.764;2023-04-03T10:39:12;22.90;25.90
75738;DHT22;64356;45.638;13.764;2023-04-03T10:44:35;22.90;26.90
75738;DHT22;64356;45.638;13.764;2023-04-03T10:47:17;22.90;26.30
75738;DHT22;64356;45.638;13.764;2023-04-03T10:52:55;22.80;26.30
75738;DHT22;64356;45.638;13.764;2023-04-03T10:58:24;22.90;26.30
75738;DHT22;64356;45.638;13.764;2023-04-03T11:00:52;23.00;26.30
75738;DHT22;64356;45.638;13.764;2023-04-03T11:05:53;23.10;26.50
75738;DHT22;64356;45.638;13.764;2023-04-03T11:08:26;23.20;26.30
75738;DHT22;64356;45.638;13.764;2023-04-03T11:11:00;23.20;26.30
75738;DHT22;64356;45.638;13.764;2023-04-03T11:16:00;23.30;26.00
75738;DHT22;64356;45.638;13.764;2023-04-03T11:19:32;23.40;26.20
75738;DHT22;64356;45.638;13.764;2023-04-03T11:21:44;23.50;26.20
75738;DHT22;64356;45.638;13.764;2023-04-03T11:24:20;23.50;26.00
75738;DHT22;64356;45.638;13.764;2023-04-03T11:26:49;23.60;26.10
75738;DHT22;64356;45.638;13.764;2023-04-03T11:29:22;23.80;26.00
75738;DHT22;64356;45.638;13.764;2023-04-03T11:34:46;23.90;26.30
75738;DHT22;64356;45.638;13.764;2023-04-03T11:39:50;24.00;25.90
75738;DHT22;64356;45.638;13.764;2023-04-03T11:42:41;24.10;25.70
75738;DHT22;64356;45.638;13.764;2023-04-03T11:47:58;24.00;25.10
75738;DHT22;64356;45.638;13.764;2023-04-03T11:53:41;23.80;25.00
75738;DHT22;64356;45.638;13.764;2023-04-03T11:58:23;23.70;25.50
75738;DHT22;64356;45.638;13.764;2023-04-03T12:01:03;23.70;25.10
75738;DHT22;64356;45.638;13.764;2023-04-03T12:03:33;23.70;25.20
75738;DHT22;64356;45.638;13.764;2023-04-03T12:16:54;23.90;25.10
75738;DHT22;64356;45.638;13.764;2023-04-03T12:19:37;23.90;25.00
75738;DHT22;64356;45.638;13.764;2023-04-03T12:22:09;23.90;25.10
75738;DHT22;64356;45.638;13.764;2023-04-03T12:24:47;24.00;24.90
75738;DHT22;64356;45.638;13.764;2023-04-03T12:27:27;23.90;24.70
75738;DHT22;64356;45.638;13.764;2023-04-03T12:29:58;23.90;24.90
75738;DHT22;64356;45.638;13.764;2023-04-03T12:32:36;23.80;24.80
75738;DHT22;64356;45.638;13.764;2023-04-03T12:35:24;23.80;24.70
75738;DHT22;64356;45.638;13.764;2023-04-03T12:38:20;23.80;24.50
75738;DHT22;64356;45.638;13.764;2023-04-03T12:41:23;23.90;24.30
75738;DHT22;64356;45.638;13.764;2023-04-03T12:46:38;23.70;24.10
75738;DHT22;64356;45.638;13.764;2023-04-03T12:49:36;23.70;24.00
75738;DHT22;64356;45.638;13.764;2023-04-03T12:52:06;23.70;24.20
75738;DHT22;64356;45.638;13.764;2023-04-03T12:54:41;23.80;24.50
75738;DHT22;64356;45.638;13.764;2023-04-03T12:59:40;24.00;24.70
75738;DHT22;64356;45.638;13.764;2023-04-03T13:02:25;24.00;24.50
75738;DHT22;64356;45.638;13.764;2023-04-03T13:04:59;24.00;24.30
75738;DHT22;64356;45.638;13.764;2023-04-03T13:07:33;24.10;24.40
75738;DHT22;64356;45.638;13.764;2023-04-03T13:10:20;24.10;24.30
75738;DHT22;64356;45.638;13.764;2023-04-03T13:12:58;24.10;24.20
75738;DHT22;64356;45.638;13.764;2023-04-03T13:15:44;24.10;24.20
75738;DHT22;64356;45.638;13.764;2023-04-03T13:20:49;24.10;23.80
75738;DHT22;64356;45.638;13.764;2023-04-03T13:23:17;24.00;23.70
75738;DHT22;64356;45.638;13.764;2023-04-03T13:25:46;23.90;23.70
75738;DHT22;64356;45.638;13.764;2023-04-03T13:28:18;23.80;24.00
75738;DHT22;64356;45.638;13.764;2023-04-03T13:30:57;23.80;23.90
75738;DHT22;64356;45.638;13.764;2023-04-03T13:33:27;23.70;23.70
75738;DHT22;64356;45.638;13.764;2023-04-03T13:36:11;23.70;23.90
75738;DHT22;64356;45.638;13.764;2023-04-03T13:38:41;23.60;24.10
75738;DHT22;64356;45.638;13.764;2023-04-03T13:41:31;23.60;24.00
75738;DHT22;64356;45.638;13.764;2023-04-03T13:44:35;23.60;24.20
75738;DHT22;64356;45.638;13.764;2023-04-03T13:47:21;23.60;24.90
75738;DHT22;64356;45.638;13.764;2023-04-03T13:50:12;23.60;24.30
75738;DHT22;64356;45.638;13.764;2023-04-03T13:52:42;23.70;24.20
75738;DHT22;64356;45.638;13.764;2023-04-03T14:05:51;23.50;23.90
75738;DHT22;64356;45.638;13.764;2023-04-03T14:08:18;23.50;24.00
75738;DHT22;64356;45.638;13.764;2023-04-03T14:10:45;23.50;24.20
75738;DHT22;64356;45.638;13.764;2023-04-03T14:13:17;23.40;24.20
75738;DHT22;64356;45.638;13.764;2023-04-03T14:15:44;23.30;24.20
75738;DHT22;64356;45.638;13.764;2023-04-03T14:18:17;23.30;24.00
75738;DHT22;64356;45.638;13.764;2023-04-03T14:20:44;23.20;24.00
75738;DHT22;64356;45.638;13.764;2023-04-03T14:23:10;23.20;24.20
75738;DHT22;64356;45.638;13.764;2023-04-03T14:25:37;23.20;24.10
75738;DHT22;64356;45.638;13.764;2023-04-03T14:28:19;23.20;24.00
75738;DHT22;64356;45.638;13.764;2023-04-03T14:30:47;23.20;24.00
75738;DHT22;64356;45.638;13.764;2023-04-03T14:33:16;23.20;24.00
75738;DHT22;64356;45.638;13.764;2023-04-03T14:35:42;23.20;24.10
75738;DHT22;64356;45.638;13.764;2023-04-03T14:38:29;23.20;24.10
75738;DHT22;64356;45.638;13.764;2023-04-03T14:40:56;23.20;24.20
75738;DHT22;64356;45.638;13.764;2023-04-03T14:43:22;23.10;24.00
75738;DHT22;64356;45.638;13.764;2023-04-03T14:45:49;23.10;24.10
75738;DHT22;64356;45.638;13.764;2023-04-03T14:48:20;23.10;24.70
75738;DHT22;64356;45.638;13.764;2023-04-03T14:50:47;23.20;24.40
75738;DHT22;64356;45.638;13.764;2023-04-03T14:53:14;23.20;24.50
75738;DHT22;64356;45.638;13.764;2023-04-03T14:55:44;23.10;24.50
75738;DHT22;64356;45.638;13.764;2023-04-03T14:58:15;23.10;24.40
75738;DHT22;64356;45.638;13.764;2023-04-03T15:00:41;23.10;24.70
75738;DHT22;64356;45.638;13.764;2023-04-03T15:03:17;23.10;24.70
75738;DHT22;64356;45.638;13.764;2023-04-03T15:05:44;23.00;24.70
75738;DHT22;64356;45.638;13.764;2023-04-03T15:08:22;23.00;24.80
75738;DHT22;64356;45.638;13.764;2023-04-03T15:10:49;22.90;24.60
75738;DHT22;64356;45.638;13.764;2023-04-03T15:13:15;22.80;24.30
75738;DHT22;64356;45.638;13.764;2023-04-03T15:15:41;22.80;24.50
75738;DHT22;64356;45.638;13.764;2023-04-03T15:18:12;22.80;24.70
75738;DHT22;64356;45.638;13.764;2023-04-03T15:20:39;22.70;24.70
75738;DHT22;64356;45.638;13.764;2023-04-03T15:23:05;22.80;24.90
75738;DHT22;64356;45.638;13.764;2023-04-03T15:25:32;22.80;25.00
75738;DHT22;64356;45.638;13.764;2023-04-03T15:27:58;22.80;24.60
75738;DHT22;64356;45.638;13.764;2023-04-03T15:30:25;22.90;24.90
75738;DHT22;64356;45.638;13.764;2023-04-03T15:32:50;22.90;24.70
75738;DHT22;64356;45.638;13.764;2023-04-03T15:35:16;22.90;24.80
75738;DHT22;64356;45.638;13.764;2023-04-03T15:37:42;22.90;24.80
75738;DHT22;64356;45.638;13.764;2023-04-03T15:40:08;22.90;24.70
75738;DHT22;64356;45.638;13.764;2023-04-03T15:42:34;23.00;24.60
75738;DHT22;64356;45.638;13.764;2023-04-03T15:45:00;23.00;24.60
75738;DHT22;64356;45.638;13.764;2023-04-03T15:47:26;23.10;24.50
75738;DHT22;64356;45.638;13.764;2023-04-03T15:49:53;23.00;24.50
75738;DHT22;64356;45.638;13.764;2023-04-03T15:52:19;23.10;24.70
75738;DHT22;64356;45.638;13.764;2023-04-03T15:54:45;23.10;24.70
75738;DHT22;64356;45.638;13.764;2023-04-03T15:57:11;23.10;24.50
75738;DHT22;64356;45.638;13.764;2023-04-03T15:59:37;23.20;24.40
75738;DHT22;64356;45.638;13.764;2023-04-03T16:02:04;23.20;24.40
75738;DHT22;64356;45.638;13.764;2023-04-03T16:04:31;23.20;24.40
75738;DHT22;64356;45.638;13.764;2023-04-03T16:07:01;23.10;24.20
75738;DHT22;64356;45.638;13.764;2023-04-03T16:09:27;23.10;25.00
75738;DHT22;64356;45.638;13.764;2023-04-03T16:11:53;23.10;24.40
75738;DHT22;64356;45.638;13.764;2023-04-03T16:14:18;23.10;24.30
75738;DHT22;64356;45.638;13.764;2023-04-03T16:16:44;23.00;24.30
75738;DHT22;64356;45.638;13.764;2023-04-03T16:19:10;23.10;24.70
75738;DHT22;64356;45.638;13.764;2023-04-03T16:21:36;23.10;24.70
75738;DHT22;64356;45.638;13.764;2023-04-03T16:24:02;23.20;24.50
75738;DHT22;64356;45.638;13.764;2023-04-03T16:26:28;23.20;24.50
75738;DHT22;64356;45.638;13.764;2023-04-03T16:28:54;23.20;24.40
75738;DHT22;64356;45.638;13.764;2023-04-03T16:31:20;23.10;24.30
75738;DHT22;64356;45.638;13.764;2023-04-03T16:33:46;23.10;24.40
75738;DHT22;64356;45.638;13.764;2023-04-03T16:36:12;23.10;24.70
75738;DHT22;64356;45.638;13.764;2023-04-03T16:38:37;23.10;24.40
75738;DHT22;64356;45.638;13.764;2023-04-03T16:41:03;23.10;24.60
75738;DHT22;64356;45.638;13.764;2023-04-03T16:43:33;23.10;24.50
75738;DHT22;64356;45.638;13.764;2023-04-03T16:46:00;23.00;24.40
75738;DHT22;64356;45.638;13.764;2023-04-03T16:48:28;23.00;24.30
75738;DHT22;64356;45.638;13.764;2023-04-03T16:50:54;22.90;24.30
75738;DHT22;64356;45.638;13.764;2023-04-03T16:53:24;22.80;24.20
75738;DHT22;64356;45.638;13.764;2023-04-03T16:55:50;22.70;24.40
75738;DHT22;64356;45.638;13.764;2023-04-03T16:58:16;22.60;24.50
75738;DHT22;64356;45.638;13.764;2023-04-03T17:00:42;22.60;25.00
75738;DHT22;64356;45.638;13.764;2023-04-03T17:03:08;22.60;25.00
75738;DHT22;64356;45.638;13.764;2023-04-03T17:05:35;22.70;24.80
75738;DHT22;64356;45.638;13.764;2023-04-03T17:08:00;22.70;25.00
75738;DHT22;64356;45.638;13.764;2023-04-03T17:10:27;22.70;25.00